createdAt,value
2024-01-29T00:00:10.067Z,23.92
2024-01-29T00:10:13.308Z,23.92
2024-01-29T00:20:16.626Z,23.94
2024-01-29T00:30:19.825Z,23.90
2024-01-29T00:40:23.043Z,23.92
2024-01-29T00:50:26.230Z,23.94
2024-01-29T01:00:29.523Z,23.89
2024-01-29T01:10:32.718Z,23.92
2024-01-29T01:20:35.906Z,23.90
2024-01-29T01:30:39.106Z,23.92
2024-01-29T01:40:43.783Z,23.92
2024-01-29T01:50:45.581Z,23.90
2024-01-29T02:00:48.820Z,23.89
2024-01-29T02:10:52.047Z,23.90
2024-01-29T02:20:55.245Z,23.89
2024-01-29T02:30:58.444Z,23.89
2024-01-29T02:41:01.635Z,23.89
2024-01-29T02:51:04.807Z,23.89
2024-01-29T03:01:08.120Z,23.89
2024-01-29T03:11:11.354Z,23.89
2024-01-29T03:21:14.562Z,23.89
2024-01-29T03:31:17.721Z,23.89
2024-01-29T03:41:20.907Z,23.87
2024-01-29T03:51:24.079Z,23.89
2024-01-29T04:01:27.528Z,23.86
2024-01-29T04:11:30.839Z,23.87
2024-01-29T04:21:34.044Z,23.86
2024-01-29T04:31:37.389Z,23.87
2024-01-29T04:41:40.644Z,23.86
2024-01-29T04:51:43.843Z,23.85
2024-01-29T05:01:47.183Z,23.86
2024-01-29T05:11:50.358Z,23.86
2024-01-29T05:21:53.608Z,23.85
2024-01-29T05:31:56.797Z,23.83
2024-01-29T05:41:59.992Z,23.83
2024-01-29T05:52:03.227Z,23.85
2024-01-29T06:02:06.613Z,23.85
2024-01-29T06:12:09.880Z,23.83
2024-01-29T06:22:13.148Z,23.83
2024-01-29T06:32:16.310Z,23.83
2024-01-29T06:42:19.505Z,23.83
2024-01-29T06:52:22.704Z,23.80
2024-01-29T07:02:25.879Z,23.80
2024-01-29T07:12:29.105Z,23.80
2024-01-29T07:22:32.373Z,23.80
2024-01-29T07:32:35.712Z,23.79
2024-01-29T07:42:39.058Z,23.80
2024-01-29T07:52:42.263Z,23.82
2024-01-29T08:02:45.549Z,23.80
2024-01-29T08:12:48.864Z,23.80
2024-01-29T08:22:52.092Z,23.80
2024-01-29T08:32:55.241Z,23.83
2024-01-29T08:42:58.587Z,23.89
2024-01-29T08:53:01.855Z,23.95
2024-01-29T09:03:05.178Z,24.02
2024-01-29T09:13:08.409Z,24.10
2024-01-29T09:23:11.618Z,24.13
2024-01-29T09:33:18.672Z,24.13
2024-01-29T09:43:19.047Z,24.13
2024-01-29T09:53:22.502Z,24.14
2024-01-29T10:03:25.709Z,24.17
2024-01-29T10:13:29.003Z,24.17
2024-01-29T10:23:32.192Z,24.17
2024-01-29T10:33:35.482Z,24.17
2024-01-29T10:43:38.815Z,24.16
2024-01-29T10:53:41.993Z,24.16
2024-01-29T11:03:45.223Z,24.13
2024-01-29T11:13:48.454Z,24.13
2024-01-29T11:23:51.654Z,24.12
2024-01-29T11:33:54.946Z,24.12
2024-01-29T11:43:58.190Z,24.08
2024-01-29T11:54:01.373Z,24.08
2024-01-29T12:04:04.843Z,24.07
2024-01-29T12:14:08.004Z,24.05
2024-01-29T12:24:11.198Z,24.05
2024-01-29T12:34:14.528Z,24.04
2024-01-29T12:44:17.896Z,24.02
2024-01-29T12:54:21.093Z,24.02
2024-01-29T13:04:24.345Z,24.02
2024-01-29T13:14:27.765Z,24.02
2024-01-29T13:24:31.080Z,24.02
2024-01-29T13:34:34.359Z,24.01
2024-01-29T13:44:37.616Z,24.02
2024-01-29T13:54:40.895Z,24.02
2024-01-29T14:04:44.231Z,24.01
2024-01-29T14:14:48.098Z,24.01
2024-01-29T14:24:51.631Z,24.00
2024-01-29T14:34:54.957Z,24.00
2024-01-29T14:44:58.290Z,24.01
2024-01-29T14:55:01.614Z,24.00
2024-01-29T15:05:05.071Z,24.00
2024-01-29T15:15:08.325Z,23.98
2024-01-29T15:25:11.597Z,23.98
2024-01-29T15:35:14.870Z,23.98
2024-01-29T15:45:18.119Z,23.98
2024-01-29T16:06:13.171Z,23.95
2024-01-29T16:16:16.904Z,23.97
2024-01-29T16:26:20.309Z,23.98
2024-01-29T16:36:23.490Z,23.98
2024-01-29T16:46:26.778Z,23.97
2024-01-29T16:56:29.997Z,23.97
2024-01-29T17:06:33.299Z,23.98
2024-01-29T17:16:36.687Z,23.97
2024-01-29T17:26:39.929Z,24.00
2024-01-29T17:36:43.123Z,23.97
2024-01-29T17:46:46.308Z,23.98
2024-01-29T17:56:49.471Z,23.97
2024-01-29T18:06:52.759Z,23.95
2024-01-29T18:16:55.989Z,23.95
2024-01-29T18:26:59.693Z,23.97
2024-01-29T18:37:02.937Z,23.95
2024-01-29T18:47:06.179Z,23.97
2024-01-29T18:57:09.368Z,23.97
2024-01-29T19:07:12.770Z,23.97
2024-01-29T19:17:16.028Z,23.98
2024-01-29T19:27:19.546Z,23.98
2024-01-29T19:37:22.850Z,23.97
2024-01-29T19:47:26.218Z,23.97
2024-01-29T19:57:29.853Z,23.98
2024-01-29T20:18:28.111Z,23.97
2024-01-29T20:28:27.767Z,23.97
2024-01-29T20:38:30.976Z,23.98
2024-01-29T20:48:34.231Z,23.97
2024-01-29T20:58:37.627Z,23.97
2024-01-29T21:08:40.804Z,23.98
2024-01-29T21:18:44.095Z,23.97
2024-01-29T21:28:47.269Z,23.97
2024-01-29T21:38:50.486Z,23.97
2024-01-29T21:48:53.874Z,23.98
2024-01-29T21:58:57.140Z,23.98
2024-01-29T22:09:00.300Z,23.98
2024-01-29T22:19:03.614Z,23.97
2024-01-29T22:29:06.843Z,23.98
2024-01-29T22:39:10.017Z,23.97
2024-01-29T22:49:13.320Z,23.97
2024-01-29T22:59:16.639Z,23.98
2024-01-29T23:09:19.802Z,23.97
2024-01-29T23:19:23.052Z,23.97
2024-01-29T23:29:26.216Z,23.97
2024-01-29T23:39:29.401Z,23.98
2024-01-29T23:49:32.641Z,23.97
2024-01-29T23:59:35.869Z,23.97
